createdAt,value
2019-02-07T00:00:45.328Z,1005.95
2019-02-07T00:01:46.232Z,1005.88
2019-02-07T00:02:45.395Z,1005.91
2019-02-07T00:03:45.350Z,1006.01
2019-02-07T00:04:45.194Z,1005.95
2019-02-07T00:05:45.176Z,1005.82
2019-02-07T00:06:45.167Z,1005.80
2019-02-07T00:07:45.723Z,1005.85
2019-02-07T00:08:45.086Z,1005.77
2019-02-07T00:09:45.094Z,1005.81
2019-02-07T00:10:45.090Z,1005.73
2019-02-07T00:11:45.121Z,1005.70
2019-02-07T00:12:45.126Z,1005.63
2019-02-07T00:13:45.019Z,1005.59
2019-02-07T00:14:45.113Z,1005.54
2019-02-07T00:15:45.760Z,1005.52
2019-02-07T00:16:45.015Z,1005.54
2019-02-07T00:17:45.080Z,1005.52
2019-02-07T00:18:44.917Z,1005.53
2019-02-07T00:19:44.881Z,1005.55
2019-02-07T00:20:44.813Z,1005.57
2019-02-07T00:21:44.864Z,1005.50
2019-02-07T00:22:44.757Z,1005.57
2019-02-07T00:23:46.700Z,1005.56
2019-02-07T00:24:44.807Z,1005.52
2019-02-07T00:25:45.000Z,1005.41
2019-02-07T00:26:44.777Z,1005.49
2019-02-07T00:27:45.752Z,1005.45
2019-02-07T00:28:44.757Z,1005.49
2019-02-07T00:29:44.763Z,1005.44
2019-02-07T00:30:44.855Z,1005.40
2019-02-07T00:31:44.606Z,1005.36
2019-02-07T00:32:44.609Z,1005.37
2019-02-07T00:33:44.906Z,1005.35
2019-02-07T00:34:44.564Z,1005.31
2019-02-07T00:35:46.133Z,1005.31
2019-02-07T00:36:44.644Z,1005.29
2019-02-07T00:37:44.462Z,1005.28
2019-02-07T00:38:44.461Z,1005.27
2019-02-07T00:39:44.544Z,1005.25
2019-02-07T00:40:44.450Z,1005.22
2019-02-07T00:41:44.680Z,1005.24
2019-02-07T00:42:45.112Z,1005.20
2019-02-07T00:43:46.151Z,1005.16
2019-02-07T00:44:50.716Z,1005.18
2019-02-07T00:45:47.273Z,1005.10
2019-02-07T00:46:44.299Z,1005.08
2019-02-07T00:47:44.294Z,1005.20
2019-02-07T00:48:44.431Z,1005.00
2019-02-07T00:49:44.409Z,1005.02
2019-02-07T00:50:44.274Z,1004.94
2019-02-07T00:51:44.217Z,1004.98
2019-02-07T00:52:44.306Z,1004.98
2019-02-07T00:53:44.225Z,1004.93
2019-02-07T00:54:44.703Z,1005.02
2019-02-07T00:55:44.122Z,1005.01
2019-02-07T00:56:44.299Z,1005.07
2019-02-07T00:57:44.037Z,1004.97
2019-02-07T00:58:44.821Z,1004.97
2019-02-07T00:59:43.981Z,1004.94
2019-02-07T01:00:44.027Z,1004.94
2019-02-07T01:01:44.642Z,1004.90
2019-02-07T01:02:43.991Z,1004.97
2019-02-07T01:03:44.021Z,1004.91
2019-02-07T01:04:43.918Z,1004.96
2019-02-07T01:05:43.973Z,1004.90
2019-02-07T01:06:44.150Z,1004.85
2019-02-07T01:07:43.953Z,1004.87
2019-02-07T01:08:44.075Z,1004.87
2019-02-07T01:09:43.878Z,1004.80
2019-02-07T01:10:43.887Z,1004.89
2019-02-07T01:11:43.804Z,1004.84
2019-02-07T01:12:43.940Z,1004.78
2019-02-07T01:13:43.858Z,1004.79
2019-02-07T01:14:43.870Z,1004.77
2019-02-07T01:15:44.648Z,1004.73
2019-02-07T01:16:44.769Z,1004.78
2019-02-07T01:17:43.746Z,1004.85
2019-02-07T01:18:43.605Z,1004.77
2019-02-07T01:19:43.635Z,1004.74
2019-02-07T01:20:43.726Z,1004.76
2019-02-07T01:21:44.209Z,1004.72
2019-02-07T01:22:43.631Z,1004.67
2019-02-07T01:23:43.663Z,1004.71
2019-02-07T01:24:43.507Z,1004.67
2019-02-07T01:25:43.548Z,1004.64
2019-02-07T01:26:43.490Z,1004.65
2019-02-07T01:28:43.554Z,1004.59
2019-02-07T01:29:45.192Z,1004.58
2019-02-07T01:30:43.380Z,1004.68
2019-02-07T01:31:43.404Z,1004.62
2019-02-07T01:32:43.333Z,1004.64
2019-02-07T01:33:43.295Z,1004.63
2019-02-07T01:34:43.295Z,1004.58
2019-02-07T01:35:43.273Z,1004.63
2019-02-07T01:36:43.290Z,1004.52
2019-02-07T01:37:44.238Z,1004.35
2019-02-07T01:38:43.289Z,1004.67
2019-02-07T01:39:46.212Z,1004.53
2019-02-07T01:40:44.192Z,1004.46
2019-02-07T01:41:43.442Z,1004.56
2019-02-07T01:42:43.323Z,1004.41
2019-02-07T01:43:43.928Z,1004.50
2019-02-07T01:44:43.126Z,1004.45
2019-02-07T01:45:44.731Z,1004.51
2019-02-07T01:46:43.194Z,1004.45
2019-02-07T01:47:43.079Z,1004.44
2019-02-07T01:48:43.095Z,1004.53
2019-02-07T01:49:42.960Z,1004.45
2019-02-07T01:50:45.820Z,1004.30
2019-02-07T01:51:42.915Z,1004.36
2019-02-07T01:52:43.037Z,1004.27
2019-02-07T01:53:43.798Z,1004.33
2019-02-07T01:54:43.707Z,1004.23
2019-02-07T01:55:42.905Z,1004.24
2019-02-07T01:56:42.839Z,1004.21
2019-02-07T01:57:44.715Z,1004.17
2019-02-07T01:58:43.730Z,1003.86
2019-02-07T01:59:43.863Z,1004.14
2019-02-07T02:00:43.684Z,1004.09
2019-02-07T02:01:42.739Z,1004.07
2019-02-07T02:02:42.835Z,1004.09
2019-02-07T02:03:42.783Z,1004.17
2019-02-07T02:04:43.302Z,1003.99
2019-02-07T02:05:42.755Z,1004.04
2019-02-07T02:06:43.305Z,1003.96
2019-02-07T02:07:42.685Z,1003.96
2019-02-07T02:08:42.643Z,1003.90
2019-02-07T02:09:42.707Z,1003.88
2019-02-07T02:10:42.565Z,1003.90
2019-02-07T02:11:44.374Z,1003.84
2019-02-07T02:12:42.552Z,1003.84
2019-02-07T02:13:42.491Z,1003.76
2019-02-07T02:14:44.313Z,1003.77
2019-02-07T02:15:42.510Z,1003.75
2019-02-07T02:16:42.367Z,1003.77
2019-02-07T02:17:42.565Z,1003.77
2019-02-07T02:18:42.369Z,1003.75
2019-02-07T02:19:42.352Z,1003.77
2019-02-07T02:20:44.215Z,1003.61
2019-02-07T02:21:42.315Z,1003.66
2019-02-07T02:22:42.246Z,1003.66
2019-02-07T02:23:42.238Z,1003.54
2019-02-07T02:24:45.099Z,1003.53
2019-02-07T02:25:42.329Z,1003.51
2019-02-07T02:26:43.204Z,1003.46
2019-02-07T02:27:42.230Z,1003.52
2019-02-07T02:28:42.229Z,1003.52
2019-02-07T02:29:42.327Z,1003.50
2019-02-07T02:30:42.057Z,1003.51
2019-02-07T02:31:42.258Z,1003.45
2019-02-07T02:32:42.087Z,1003.46
2019-02-07T02:33:42.832Z,1003.56
2019-02-07T02:34:42.145Z,1003.34
2019-02-07T02:35:42.050Z,1003.39
2019-02-07T02:36:42.818Z,1003.33
2019-02-07T02:37:42.088Z,1003.35
2019-02-07T02:38:42.006Z,1003.29
2019-02-07T02:39:41.981Z,1003.25
2019-02-07T02:40:41.910Z,1003.16
2019-02-07T02:42:42.631Z,1003.13
2019-02-07T02:43:42.684Z,1003.13
2019-02-07T02:44:41.772Z,1003.13
2019-02-07T02:45:41.835Z,1003.12
2019-02-07T02:46:41.908Z,1003.05
2019-02-07T02:47:41.777Z,1003.00
2019-02-07T02:48:41.781Z,1003.05
2019-02-07T02:49:41.871Z,1002.95
2019-02-07T02:50:43.748Z,1002.98
2019-02-07T02:51:41.737Z,1002.99
2019-02-07T02:52:42.221Z,1002.92
2019-02-07T02:53:41.789Z,1002.87
2019-02-07T02:54:41.588Z,1002.92
2019-02-07T02:55:41.566Z,1002.80
2019-02-07T02:56:42.272Z,1002.76
2019-02-07T02:57:41.599Z,1002.77
2019-02-07T02:58:41.538Z,1002.71
2019-02-07T02:59:41.610Z,1002.72
2019-02-07T03:00:41.618Z,1002.73
2019-02-07T03:01:41.490Z,1002.72
2019-02-07T03:02:41.463Z,1002.67
2019-02-07T03:03:41.447Z,1002.68
2019-02-07T03:04:44.248Z,1002.63
2019-02-07T03:05:41.493Z,1002.67
2019-02-07T03:06:41.494Z,1002.61
2019-02-07T03:07:41.382Z,1002.56
2019-02-07T03:08:41.390Z,1002.53
2019-02-07T03:09:41.466Z,1002.48
2019-02-07T03:10:41.258Z,1002.44
2019-02-07T03:11:41.223Z,1002.38
2019-02-07T03:12:41.220Z,1002.35
2019-02-07T03:13:44.338Z,1002.32
2019-02-07T03:14:41.341Z,1002.34
2019-02-07T03:15:49.312Z,1002.37
2019-02-07T03:16:41.173Z,1002.26
2019-02-07T03:17:41.761Z,1002.25
2019-02-07T03:18:41.167Z,1002.19
2019-02-07T03:19:41.201Z,1002.17
2019-02-07T03:20:41.873Z,1002.12
2019-02-07T03:21:41.127Z,1002.12
2019-02-07T03:22:41.087Z,1002.15
2019-02-07T03:23:41.045Z,1002.16
2019-02-07T03:24:41.106Z,1002.12
2019-02-07T03:25:41.046Z,1002.18
2019-02-07T03:26:41.014Z,1002.09
2019-02-07T03:27:40.972Z,1002.04
2019-02-07T03:28:41.038Z,1002.02
2019-02-07T03:29:41.019Z,1002.03
2019-02-07T03:30:40.946Z,1001.95
2019-02-07T03:31:41.640Z,1001.98
2019-02-07T03:32:40.933Z,1001.94
2019-02-07T03:33:40.809Z,1001.91
2019-02-07T03:34:42.790Z,1001.94
2019-02-07T03:35:40.853Z,1001.83
2019-02-07T03:36:40.785Z,1001.82
2019-02-07T03:37:40.789Z,1001.89
2019-02-07T03:38:40.754Z,1001.88
2019-02-07T03:39:40.836Z,1001.95
2019-02-07T03:40:40.696Z,1001.78
2019-02-07T03:41:40.688Z,1001.86
2019-02-07T03:42:41.340Z,1001.80
2019-02-07T03:43:40.845Z,1001.78
2019-02-07T03:44:40.601Z,1001.74
2019-02-07T03:45:40.615Z,1001.67
2019-02-07T03:46:40.630Z,1001.70
2019-02-07T03:47:40.472Z,1001.67
2019-02-07T03:48:40.759Z,1001.58
2019-02-07T03:49:45.323Z,1001.66
2019-02-07T03:50:40.575Z,1001.60
2019-02-07T03:51:40.625Z,1001.57
2019-02-07T03:52:45.326Z,1001.54
2019-02-07T03:53:40.540Z,1001.42
2019-02-07T03:54:40.346Z,1001.46
2019-02-07T03:55:41.306Z,1001.49
2019-02-07T03:56:41.735Z,1001.43
2019-02-07T03:57:40.417Z,1001.39
2019-02-07T03:58:41.203Z,1001.32
2019-02-07T03:59:40.332Z,1001.35
2019-02-07T04:00:40.337Z,1001.35
2019-02-07T04:01:41.206Z,1001.31
2019-02-07T04:02:40.694Z,1001.25
2019-02-07T04:03:41.174Z,1001.20
2019-02-07T04:04:40.188Z,1001.19
2019-02-07T04:05:40.082Z,1001.16
2019-02-07T04:06:40.095Z,1001.13
2019-02-07T04:07:40.110Z,1001.09
2019-02-07T04:08:40.245Z,1001.04
2019-02-07T04:09:40.075Z,1001.06
2019-02-07T04:10:43.070Z,1001.01
2019-02-07T04:11:40.154Z,1001.13
2019-02-07T04:12:40.061Z,1000.93
2019-02-07T04:13:39.984Z,1000.91
2019-02-07T04:14:40.684Z,1000.84
2019-02-07T04:15:40.105Z,1000.86
2019-02-07T04:16:39.950Z,1001.01
2019-02-07T04:17:40.680Z,1000.85
2019-02-07T04:18:39.861Z,1000.85
2019-02-07T04:19:39.917Z,1000.84
2019-02-07T04:20:39.883Z,1000.79
2019-02-07T04:21:42.873Z,1000.81
2019-02-07T04:22:39.940Z,1000.77
2019-02-07T04:23:39.718Z,1000.79
2019-02-07T04:24:39.855Z,1000.69
2019-02-07T04:25:39.728Z,1000.73
2019-02-07T04:26:39.889Z,1000.69
2019-02-07T04:27:39.668Z,1000.70
2019-02-07T04:28:40.218Z,1000.60
2019-02-07T04:29:39.721Z,1000.61
2019-02-07T04:30:39.773Z,1000.49
2019-02-07T04:31:39.688Z,1000.55
2019-02-07T04:32:39.619Z,1000.50
2019-02-07T04:33:39.692Z,1000.56
2019-02-07T04:34:39.556Z,1000.47
2019-02-07T04:35:39.564Z,1000.46
2019-02-07T04:38:46.337Z,1000.30
2019-02-07T04:40:59.267Z,1000.27
2019-02-07T04:41:59.368Z,1000.21
2019-02-07T04:43:00.909Z,1000.24
2019-02-07T04:44:01.087Z,1000.18
2019-02-07T04:44:59.337Z,1000.28
2019-02-07T04:45:59.357Z,1000.08
2019-02-07T04:46:59.918Z,1000.18
2019-02-07T04:48:01.985Z,1000.12
2019-02-07T04:49:02.009Z,1000.20
2019-02-07T04:49:59.147Z,1000.12
2019-02-07T04:50:59.250Z,1000.16
2019-02-07T04:51:59.048Z,1000.14
2019-02-07T04:53:01.165Z,1000.08
2019-02-07T04:53:59.089Z,1000.11
2019-02-07T04:54:59.922Z,1000.12
2019-02-07T04:55:59.051Z,1000.20
2019-02-07T04:57:58.994Z,1000.13
2019-02-07T04:58:59.042Z,1000.07
2019-02-07T04:59:58.936Z,1000.05
2019-02-07T05:01:00.435Z,999.97
2019-02-07T05:02:01.512Z,999.98
2019-02-07T05:02:58.830Z,999.96
2019-02-07T05:03:58.839Z,1000.03
2019-02-07T05:04:58.887Z,999.99
2019-02-07T05:05:58.862Z,1000.00
2019-02-07T05:06:58.845Z,999.90
2019-02-07T05:07:58.734Z,999.85
2019-02-07T05:08:58.840Z,999.94
2019-02-07T05:09:58.840Z,999.88
2019-02-07T05:10:58.834Z,999.84
2019-02-07T05:12:00.420Z,999.86
2019-02-07T05:13:01.507Z,999.81
2019-02-07T05:13:58.724Z,999.83
2019-02-07T05:15:00.552Z,999.81
2019-02-07T05:15:58.680Z,999.84
2019-02-07T05:16:58.770Z,999.78
2019-02-07T05:17:58.621Z,999.72
2019-02-07T05:18:58.618Z,999.88
2019-02-07T05:19:58.552Z,999.66
2019-02-07T05:20:58.638Z,999.63
2019-02-07T05:21:58.599Z,999.59
2019-02-07T05:22:59.419Z,999.64
2019-02-07T05:23:58.509Z,999.57
2019-02-07T05:24:58.552Z,999.46
2019-02-07T05:25:58.477Z,999.45
2019-02-07T05:26:58.318Z,999.44
2019-02-07T05:27:58.443Z,999.44
2019-02-07T05:28:58.372Z,999.42
2019-02-07T05:29:58.347Z,999.41
2019-02-07T05:30:58.321Z,999.44
2019-02-07T05:31:58.941Z,999.37
2019-02-07T05:33:04.851Z,999.41
2019-02-07T05:33:58.276Z,999.37
2019-02-07T05:34:58.436Z,999.41
2019-02-07T05:36:00.019Z,999.32
2019-02-07T05:36:58.205Z,999.36
2019-02-07T05:38:00.076Z,999.30
2019-02-07T05:38:58.230Z,999.28
2019-02-07T05:39:58.221Z,999.36
2019-02-07T05:40:58.163Z,999.35
2019-02-07T05:41:58.175Z,999.29
2019-02-07T05:42:58.144Z,999.17
2019-02-07T05:43:58.132Z,999.15
2019-02-07T05:44:58.188Z,999.21
2019-02-07T05:45:58.191Z,999.13
2019-02-07T05:47:00.030Z,999.10
2019-02-07T05:47:57.922Z,999.12
2019-02-07T05:48:58.132Z,999.04
2019-02-07T05:49:58.019Z,998.85
2019-02-07T05:50:57.854Z,999.00
2019-02-07T05:51:58.008Z,999.01
2019-02-07T05:52:58.103Z,998.95
2019-02-07T05:53:58.010Z,999.13
2019-02-07T05:54:58.145Z,998.92
2019-02-07T05:55:57.843Z,998.91
2019-02-07T05:56:57.847Z,998.93
2019-02-07T05:57:58.548Z,998.91
2019-02-07T05:58:59.357Z,998.91
2019-02-07T05:59:57.913Z,998.89
2019-02-07T06:00:57.733Z,998.91
2019-02-07T06:01:57.689Z,998.92
2019-02-07T06:02:57.986Z,998.94
2019-02-07T06:03:57.876Z,999.15
2019-02-07T06:04:58.487Z,998.99
2019-02-07T06:05:58.418Z,998.90
2019-02-07T06:06:57.549Z,999.19
2019-02-07T06:08:57.789Z,998.90
2019-02-07T06:09:59.472Z,998.86
2019-02-07T06:10:58.632Z,998.80
2019-02-07T06:11:58.410Z,998.83
2019-02-07T06:12:57.519Z,998.75
2019-02-07T06:13:57.448Z,998.66
2019-02-07T06:14:57.997Z,998.79
2019-02-07T06:15:59.079Z,998.78
2019-02-07T06:17:02.837Z,998.74
2019-02-07T06:17:57.435Z,998.75
2019-02-07T06:19:04.112Z,998.67
2019-02-07T06:20:01.918Z,998.60
2019-02-07T06:20:57.592Z,998.72
2019-02-07T06:21:57.395Z,998.72
2019-02-07T06:22:57.967Z,998.73
2019-02-07T06:23:59.059Z,998.75
2019-02-07T06:24:57.529Z,998.78
2019-02-07T06:25:59.959Z,998.68
2019-02-07T06:26:57.196Z,998.67
2019-02-07T06:27:57.162Z,998.65
2019-02-07T06:28:57.730Z,998.63
2019-02-07T06:29:57.171Z,998.83
2019-02-07T06:30:57.179Z,998.70
2019-02-07T06:31:57.168Z,998.78
2019-02-07T06:32:57.932Z,998.53
2019-02-07T06:33:57.132Z,998.64
2019-02-07T06:34:57.177Z,998.59
2019-02-07T06:35:57.090Z,998.57
2019-02-07T06:36:57.027Z,998.70
2019-02-07T06:37:56.980Z,998.71
2019-02-07T06:38:57.036Z,998.58
2019-02-07T06:39:56.967Z,998.80
2019-02-07T06:40:57.596Z,998.47
2019-02-07T06:41:57.345Z,998.43
2019-02-07T06:42:57.246Z,998.59
2019-02-07T06:43:57.878Z,998.49
2019-02-07T06:44:57.501Z,998.57
2019-02-07T06:46:59.843Z,998.48
2019-02-07T06:48:01.579Z,998.51
2019-02-07T06:48:57.174Z,998.61
2019-02-07T06:50:01.551Z,998.49
2019-02-07T06:50:56.901Z,998.51
2019-02-07T06:51:57.019Z,998.50
2019-02-07T06:52:56.707Z,998.47
2019-02-07T06:53:58.593Z,998.66
2019-02-07T06:54:56.813Z,998.47
2019-02-07T06:55:56.721Z,998.46
2019-02-07T06:56:56.626Z,998.43
2019-02-07T06:57:56.614Z,998.41
2019-02-07T06:58:56.813Z,998.44
2019-02-07T07:01:56.850Z,998.61
2019-02-07T07:02:56.982Z,998.42
2019-02-07T07:03:57.780Z,998.54
2019-02-07T07:04:56.919Z,998.48
2019-02-07T07:05:56.852Z,998.49
2019-02-07T07:06:56.550Z,998.52
2019-02-07T07:07:56.603Z,998.50
2019-02-07T07:08:59.274Z,998.51
2019-02-07T07:09:56.770Z,998.56
2019-02-07T07:10:56.264Z,998.46
2019-02-07T07:11:56.608Z,998.61
2019-02-07T07:12:56.418Z,998.56
2019-02-07T07:14:03.051Z,998.52
2019-02-07T07:14:56.314Z,998.49
2019-02-07T07:15:58.271Z,998.53
2019-02-07T07:16:56.315Z,998.53
2019-02-07T07:17:57.091Z,998.58
2019-02-07T07:18:56.271Z,998.44
2019-02-07T07:19:56.434Z,998.50
2019-02-07T07:21:56.736Z,998.58
2019-02-07T07:22:56.279Z,998.44
2019-02-07T07:23:58.992Z,998.62
2019-02-07T07:24:58.176Z,998.59
2019-02-07T07:25:56.195Z,998.62
2019-02-07T07:26:59.164Z,998.74
2019-02-07T07:27:58.279Z,998.65
2019-02-07T07:28:56.269Z,998.63
2019-02-07T07:29:55.942Z,998.61
2019-02-07T07:30:56.524Z,998.73
2019-02-07T07:31:57.681Z,998.55
2019-02-07T07:32:56.245Z,998.56
2019-02-07T07:33:58.769Z,998.55
2019-02-07T07:34:58.606Z,998.56
2019-02-07T07:35:57.753Z,998.52
2019-02-07T07:36:56.791Z,998.48
2019-02-07T07:37:55.842Z,998.47
2019-02-07T07:38:56.290Z,998.46
2019-02-07T07:39:58.803Z,998.46
2019-02-07T07:41:06.695Z,998.42
2019-02-07T07:41:58.090Z,998.42
2019-02-07T07:42:56.631Z,998.41
2019-02-07T07:43:57.667Z,998.48
2019-02-07T07:44:55.692Z,998.58
2019-02-07T07:46:58.612Z,998.47
2019-02-07T07:47:55.776Z,998.61
2019-02-07T07:48:58.704Z,998.44
2019-02-07T07:49:57.868Z,998.37
2019-02-07T07:50:56.531Z,998.58
2019-02-07T07:51:55.842Z,998.48
2019-02-07T07:52:55.582Z,998.43
2019-02-07T07:53:56.830Z,998.61
2019-02-07T07:54:57.144Z,998.46
2019-02-07T07:55:55.514Z,998.47
2019-02-07T07:57:00.217Z,998.53
2019-02-07T07:58:17.951Z,998.42
2019-02-07T07:58:55.914Z,998.39
2019-02-07T07:59:56.961Z,998.39
2019-02-07T08:01:56.199Z,998.47
2019-02-07T08:02:55.550Z,998.46
2019-02-07T08:04:55.456Z,998.48
2019-02-07T08:05:57.809Z,998.38
2019-02-07T08:07:00.732Z,998.44
2019-02-07T08:08:02.325Z,998.46
2019-02-07T08:09:00.272Z,998.52
2019-02-07T08:10:03.006Z,998.52
2019-02-07T08:10:57.410Z,998.52
2019-02-07T08:11:55.697Z,998.51
2019-02-07T08:14:55.293Z,998.59
2019-02-07T08:15:56.362Z,998.48
2019-02-07T08:16:59.048Z,998.54
2019-02-07T08:17:55.284Z,998.58
2019-02-07T08:18:55.976Z,998.57
2019-02-07T08:19:58.512Z,998.58
2019-02-07T08:20:55.720Z,998.52
2019-02-07T08:21:56.687Z,998.50
2019-02-07T08:23:05.912Z,998.53
2019-02-07T08:23:57.132Z,998.48
2019-02-07T08:24:55.165Z,998.46
2019-02-07T08:25:56.673Z,998.51
2019-02-07T08:26:56.720Z,998.47
2019-02-07T08:27:55.712Z,998.45
2019-02-07T08:28:54.822Z,998.51
2019-02-07T08:30:55.097Z,998.41
2019-02-07T08:31:55.476Z,998.44
2019-02-07T08:32:55.513Z,998.31
2019-02-07T08:33:55.144Z,998.40
2019-02-07T08:34:55.647Z,998.35
2019-02-07T08:36:05.913Z,998.33
2019-02-07T08:37:58.242Z,998.27
2019-02-07T08:38:55.474Z,998.29
2019-02-07T08:40:20.635Z,998.34
2019-02-07T08:41:54.826Z,998.39
2019-02-07T08:42:54.656Z,998.37
2019-02-07T08:43:56.691Z,998.37
2019-02-07T08:44:55.671Z,998.31
2019-02-07T08:47:05.315Z,998.35
2019-02-07T08:47:58.580Z,998.39
2019-02-07T08:49:20.090Z,998.42
2019-02-07T08:49:55.231Z,998.54
2019-02-07T08:50:54.592Z,998.46
2019-02-07T08:52:01.347Z,998.42
2019-02-07T08:55:47.961Z,998.30
2019-02-07T08:56:46.019Z,998.28
2019-02-07T08:57:50.759Z,998.31
2019-02-07T08:58:52.323Z,998.37
2019-02-07T08:59:46.850Z,998.33
2019-02-07T09:00:47.695Z,998.25
2019-02-07T09:01:47.750Z,998.34
2019-02-07T09:02:51.736Z,998.23
2019-02-07T09:03:45.865Z,998.26
2019-02-07T09:04:45.940Z,998.23
2019-02-07T09:06:07.835Z,998.24
2019-02-07T09:06:45.706Z,998.21
2019-02-07T09:08:03.528Z,998.18
2019-02-07T09:11:50.809Z,998.26
2019-02-07T09:12:39.572Z,998.17
2019-02-07T09:15:39.475Z,998.22
2019-02-07T09:16:39.490Z,998.25
2019-02-07T09:17:39.409Z,998.13
2019-02-07T09:19:39.938Z,998.20
2019-02-07T09:20:39.853Z,998.21
2019-02-07T09:21:40.513Z,998.23
2019-02-07T09:22:39.405Z,998.17
2019-02-07T09:23:41.286Z,998.21
2019-02-07T09:24:41.382Z,998.18
2019-02-07T09:25:39.346Z,998.26
2019-02-07T09:26:40.278Z,998.17
2019-02-07T09:27:41.299Z,998.22
2019-02-07T09:28:39.333Z,998.29
2019-02-07T09:29:40.695Z,998.27
2019-02-07T09:30:41.236Z,998.23
2019-02-07T09:31:39.259Z,998.22
2019-02-07T09:32:41.224Z,998.11
2019-02-07T09:33:39.032Z,998.14
2019-02-07T09:34:40.612Z,998.17
2019-02-07T09:35:39.175Z,998.16
2019-02-07T09:36:40.086Z,998.24
2019-02-07T09:37:39.025Z,998.25
2019-02-07T09:38:40.774Z,998.25
2019-02-07T09:39:38.886Z,998.23
2019-02-07T09:40:39.064Z,998.26
2019-02-07T09:41:39.083Z,998.21
2019-02-07T09:42:40.015Z,998.25
2019-02-07T09:43:38.861Z,998.26
2019-02-07T09:44:39.012Z,998.29
2019-02-07T09:45:40.821Z,998.29
2019-02-07T09:46:40.697Z,998.32
2019-02-07T09:49:38.768Z,998.39
2019-02-07T09:50:38.893Z,998.38
2019-02-07T09:51:38.925Z,998.43
2019-02-07T09:52:38.756Z,998.49
2019-02-07T09:53:38.760Z,998.46
2019-02-07T09:54:42.268Z,998.50
2019-02-07T09:55:42.231Z,998.47
2019-02-07T09:56:38.762Z,998.47
2019-02-07T09:58:40.118Z,998.36
2019-02-07T10:00:38.600Z,998.36
2019-02-07T10:01:40.787Z,998.45
2019-02-07T10:03:40.973Z,998.43
2019-02-07T10:04:38.404Z,998.43
2019-02-07T10:05:38.705Z,998.42
2019-02-07T10:06:38.894Z,998.43
2019-02-07T10:07:39.492Z,998.39
2019-02-07T10:08:39.558Z,998.42
2019-02-07T10:09:40.834Z,998.38
2019-02-07T10:10:40.594Z,998.37
2019-02-07T10:11:38.446Z,998.44
2019-02-07T10:12:40.216Z,998.39
2019-02-07T10:13:40.346Z,998.43
2019-02-07T10:14:38.373Z,998.45
2019-02-07T10:15:42.001Z,998.44
2019-02-07T10:16:38.599Z,998.43
2019-02-07T10:17:40.458Z,998.45
2019-02-07T10:18:38.264Z,998.42
2019-02-07T10:19:38.315Z,998.41
2019-02-07T10:20:39.668Z,998.39
2019-02-07T10:21:39.373Z,998.37
2019-02-07T10:22:38.243Z,998.36
2019-02-07T10:23:40.240Z,998.37
2019-02-07T10:25:40.101Z,998.34
2019-02-07T10:26:38.430Z,998.34
2019-02-07T10:27:40.803Z,998.37
2019-02-07T10:28:38.065Z,998.35
2019-02-07T10:29:38.009Z,998.41
2019-02-07T10:30:38.115Z,998.39
2019-02-07T10:31:38.112Z,998.44
2019-02-07T10:32:38.056Z,998.38
2019-02-07T10:33:39.834Z,998.40
2019-02-07T10:34:38.356Z,998.38
2019-02-07T10:36:39.885Z,998.33
2019-02-07T10:37:42.325Z,998.33
2019-02-07T10:38:37.942Z,998.39
2019-02-07T10:39:37.798Z,998.38
2019-02-07T10:40:37.976Z,998.42
2019-02-07T10:42:39.845Z,998.38
2019-02-07T10:43:37.784Z,998.36
2019-02-07T10:44:40.166Z,998.36
2019-02-07T10:45:40.298Z,998.43
2019-02-07T10:46:39.816Z,998.39
2019-02-07T10:47:37.830Z,998.42
2019-02-07T10:48:44.568Z,998.37
2019-02-07T10:49:37.765Z,998.33
2019-02-07T10:50:40.293Z,998.38
2019-02-07T10:51:37.677Z,998.41
2019-02-07T10:52:40.129Z,998.40
2019-02-07T10:54:38.542Z,998.45
2019-02-07T10:55:39.269Z,998.48
2019-02-07T10:56:39.151Z,998.42
2019-02-07T10:57:37.939Z,998.40
2019-02-07T10:58:37.561Z,998.42
2019-02-07T10:59:37.531Z,998.46
2019-02-07T11:00:39.263Z,998.46
2019-02-07T11:01:37.451Z,998.50
2019-02-07T11:02:37.437Z,998.49
2019-02-07T11:03:39.312Z,998.56
2019-02-07T11:05:37.450Z,998.57
2019-02-07T11:06:37.984Z,998.56
2019-02-07T11:07:37.683Z,998.58
2019-02-07T11:08:37.333Z,998.57
2019-02-07T11:09:37.240Z,998.56
2019-02-07T11:10:37.375Z,998.56
2019-02-07T11:11:37.288Z,998.55
2019-02-07T11:12:37.289Z,998.53
2019-02-07T11:13:37.290Z,998.56
2019-02-07T11:14:37.786Z,998.60
2019-02-07T11:15:37.692Z,998.65
2019-02-07T11:16:37.376Z,998.62
2019-02-07T11:17:37.072Z,998.54
2019-02-07T11:18:39.227Z,998.55
2019-02-07T11:19:37.134Z,998.59
2019-02-07T11:20:37.053Z,998.64
2019-02-07T11:21:37.071Z,998.63
2019-02-07T11:22:38.583Z,998.66
2019-02-07T11:23:37.221Z,998.65
2019-02-07T11:24:38.840Z,998.60
2019-02-07T11:25:39.634Z,998.63
2019-02-07T11:26:38.741Z,998.66
2019-02-07T11:27:36.959Z,998.64
2019-02-07T11:28:37.014Z,998.66
2019-02-07T11:29:38.691Z,998.64
2019-02-07T11:30:38.827Z,998.64
2019-02-07T11:31:38.625Z,998.64
2019-02-07T11:32:38.727Z,998.69
2019-02-07T11:33:39.052Z,998.76
2019-02-07T11:34:37.084Z,998.67
2019-02-07T11:35:37.009Z,998.72
2019-02-07T11:36:38.734Z,998.73
2019-02-07T11:37:36.807Z,998.72
2019-02-07T11:38:36.806Z,998.71
2019-02-07T11:39:36.787Z,998.68
2019-02-07T11:40:36.893Z,998.64
2019-02-07T11:41:36.733Z,998.65
2019-02-07T11:42:36.768Z,998.66
2019-02-07T11:43:36.569Z,998.64
2019-02-07T11:44:36.599Z,998.63
2019-02-07T11:45:37.726Z,998.64
2019-02-07T11:46:37.625Z,998.67
2019-02-07T11:47:36.984Z,998.68
2019-02-07T11:48:36.490Z,998.71
2019-02-07T11:49:40.260Z,998.69
2019-02-07T11:51:36.620Z,998.73
2019-02-07T11:52:36.828Z,998.72
2019-02-07T11:53:36.597Z,998.77
2019-02-07T11:54:37.536Z,998.75
2019-02-07T11:55:38.376Z,998.81
2019-02-07T11:56:36.524Z,998.86
2019-02-07T11:57:38.317Z,998.83
2019-02-07T11:58:36.372Z,998.82
2019-02-07T11:59:40.068Z,998.84
2019-02-07T12:00:36.232Z,998.78
2019-02-07T12:01:42.562Z,998.86
2019-02-07T12:02:36.573Z,998.77
2019-02-07T12:03:36.278Z,998.87
2019-02-07T12:04:36.507Z,998.85
2019-02-07T12:05:38.784Z,998.88
2019-02-07T12:06:36.268Z,998.90
2019-02-07T12:07:36.726Z,998.84
2019-02-07T12:08:36.297Z,998.87
2019-02-07T12:09:36.163Z,998.92
2019-02-07T12:10:38.808Z,998.93
2019-02-07T12:11:36.286Z,998.92
2019-02-07T12:12:35.984Z,998.94
2019-02-07T12:13:35.990Z,998.93
2019-02-07T12:14:37.840Z,998.98
2019-02-07T12:16:40.112Z,998.92
2019-02-07T12:17:40.124Z,998.95
2019-02-07T12:18:37.302Z,998.99
2019-02-07T12:19:35.970Z,998.96
2019-02-07T12:20:36.399Z,998.99
2019-02-07T12:23:35.810Z,998.88
2019-02-07T12:25:36.067Z,998.94
2019-02-07T12:26:36.007Z,998.86
2019-02-07T12:27:36.074Z,998.93
2019-02-07T12:28:36.272Z,998.91
2019-02-07T12:29:37.938Z,998.91
2019-02-07T12:30:38.914Z,998.91
2019-02-07T12:31:35.937Z,998.91
2019-02-07T12:32:35.931Z,998.94
2019-02-07T12:33:35.750Z,998.89
2019-02-07T12:34:37.755Z,998.92
2019-02-07T12:35:35.616Z,998.92
2019-02-07T12:36:35.795Z,998.89
2019-02-07T12:37:35.818Z,998.90
2019-02-07T12:39:37.701Z,998.88
2019-02-07T12:40:35.650Z,998.87
2019-02-07T12:41:37.210Z,998.89
2019-02-07T12:42:35.621Z,998.88
2019-02-07T12:43:35.644Z,998.85
2019-02-07T12:44:35.665Z,998.88
2019-02-07T12:45:36.238Z,998.90
2019-02-07T12:46:37.437Z,998.88
2019-02-07T12:47:35.507Z,998.88
2019-02-07T12:48:37.199Z,998.88
2019-02-07T12:49:37.134Z,998.83
2019-02-07T12:50:35.432Z,998.88
2019-02-07T12:51:35.557Z,998.81
2019-02-07T12:52:35.480Z,998.83
2019-02-07T12:53:35.483Z,998.85
2019-02-07T12:54:36.373Z,998.90
2019-02-07T12:55:37.157Z,998.88
2019-02-07T12:56:37.258Z,998.87
2019-02-07T12:57:37.161Z,998.89
2019-02-07T12:58:35.376Z,998.90
2019-02-07T12:59:35.288Z,998.87
2019-02-07T13:00:35.413Z,998.87
2019-02-07T13:01:37.284Z,998.90
2019-02-07T13:02:35.314Z,998.86
2019-02-07T13:03:35.495Z,998.86
2019-02-07T13:04:35.368Z,998.84